createdAt,value
2022-11-02T00:00:58.999Z,999.25
2022-11-02T00:01:59.031Z,999.18
2022-11-02T00:02:59.010Z,999.20
2022-11-02T00:03:58.944Z,999.19
2022-11-02T00:04:58.946Z,999.20
2022-11-02T00:05:58.975Z,999.21
2022-11-02T00:06:58.924Z,999.19
2022-11-02T00:07:58.922Z,999.12
2022-11-02T00:08:58.904Z,999.18
2022-11-02T00:09:58.929Z,999.19
2022-11-02T00:10:58.887Z,999.22
2022-11-02T00:11:58.881Z,999.10
2022-11-02T00:12:58.875Z,999.13
2022-11-02T00:13:58.889Z,999.11
2022-11-02T00:14:58.886Z,999.10
2022-11-02T00:15:58.883Z,999.06
2022-11-02T00:16:58.845Z,999.11
2022-11-02T00:17:58.872Z,999.10
2022-11-02T00:18:58.845Z,999.08
2022-11-02T00:19:58.825Z,999.11
2022-11-02T00:20:58.842Z,999.11
2022-11-02T00:21:58.844Z,999.12
2022-11-02T00:22:58.802Z,999.04
2022-11-02T00:23:58.798Z,999.14
2022-11-02T00:24:58.810Z,999.18
2022-11-02T00:26:02.176Z,999.12
2022-11-02T00:26:59.773Z,999.14
2022-11-02T00:27:58.768Z,999.16
2022-11-02T00:28:58.764Z,999.15
2022-11-02T00:29:58.751Z,999.11
2022-11-02T00:30:58.777Z,999.13
2022-11-02T00:31:58.750Z,999.07
2022-11-02T00:32:58.727Z,999.11
2022-11-02T00:33:58.721Z,999.18
2022-11-02T00:34:58.786Z,999.18
2022-11-02T00:35:58.740Z,999.11
2022-11-02T00:36:58.699Z,999.10
2022-11-02T00:37:58.685Z,999.16
2022-11-02T00:38:58.695Z,999.18
2022-11-02T00:39:58.677Z,999.16
2022-11-02T00:40:58.691Z,999.13
2022-11-02T00:41:58.657Z,999.08
2022-11-02T00:42:58.652Z,999.04
2022-11-02T00:43:58.635Z,999.05
2022-11-02T00:44:58.657Z,999.04
2022-11-02T00:45:58.659Z,999.03
2022-11-02T00:46:58.625Z,998.99
2022-11-02T00:47:58.608Z,999.07
2022-11-02T00:48:58.594Z,998.99
2022-11-02T00:49:58.597Z,998.95
2022-11-02T00:50:58.642Z,999.07
2022-11-02T00:51:58.590Z,999.02
2022-11-02T00:52:58.573Z,999.07
2022-11-02T00:53:58.563Z,999.04
2022-11-02T00:54:58.555Z,999.00
2022-11-02T00:55:58.595Z,999.06
2022-11-02T00:56:58.616Z,998.98
2022-11-02T00:57:58.551Z,999.01
2022-11-02T00:58:58.521Z,999.01
2022-11-02T00:59:58.517Z,999.02
2022-11-02T01:00:58.585Z,999.08
2022-11-02T01:01:58.593Z,999.06
2022-11-02T01:02:58.492Z,998.95
2022-11-02T01:03:58.492Z,999.04
2022-11-02T01:04:58.472Z,999.01
2022-11-02T01:05:58.502Z,999.03
2022-11-02T01:06:58.469Z,998.92
2022-11-02T01:07:58.450Z,998.99
2022-11-02T01:08:59.452Z,998.88
2022-11-02T01:09:58.450Z,998.90
2022-11-02T01:10:58.681Z,998.82
2022-11-02T01:11:58.432Z,998.92
2022-11-02T01:12:58.433Z,998.92
2022-11-02T01:13:58.420Z,998.89
2022-11-02T01:14:58.401Z,998.89
2022-11-02T01:15:58.425Z,998.88
2022-11-02T01:16:58.388Z,998.80
2022-11-02T01:17:58.385Z,998.77
2022-11-02T01:18:58.395Z,998.84
2022-11-02T01:19:58.362Z,998.82
2022-11-02T01:20:58.397Z,998.86
2022-11-02T01:21:58.346Z,998.78
2022-11-02T01:22:58.339Z,998.82
2022-11-02T01:23:58.331Z,998.87
2022-11-02T01:24:58.330Z,998.80
2022-11-02T01:25:58.345Z,998.81
2022-11-02T01:26:58.310Z,998.72
2022-11-02T01:27:58.301Z,998.74
2022-11-02T01:28:58.297Z,998.74
2022-11-02T01:29:58.290Z,998.72
2022-11-02T01:30:58.315Z,998.74
2022-11-02T01:31:58.278Z,998.80
2022-11-02T01:32:58.275Z,998.73
2022-11-02T01:33:58.258Z,998.78
2022-11-02T01:34:58.255Z,998.73
2022-11-02T01:35:58.270Z,998.73
2022-11-02T01:36:58.248Z,998.72
2022-11-02T01:37:58.230Z,998.70
2022-11-02T01:38:58.221Z,998.75
2022-11-02T01:39:58.214Z,998.64
2022-11-02T01:40:58.241Z,998.63
2022-11-02T01:41:58.201Z,998.65
2022-11-02T01:42:58.199Z,998.70
2022-11-02T01:43:58.192Z,998.67
2022-11-02T01:44:58.174Z,998.62
2022-11-02T01:45:58.194Z,998.54
2022-11-02T01:46:58.170Z,998.58
2022-11-02T01:47:58.151Z,998.58
2022-11-02T01:48:58.153Z,998.50
2022-11-02T01:49:58.138Z,998.54
2022-11-02T01:50:58.172Z,998.59
2022-11-02T01:51:58.122Z,998.59
2022-11-02T01:52:58.118Z,998.45
2022-11-02T01:53:58.106Z,998.49
2022-11-02T01:54:58.133Z,998.51
2022-11-02T01:55:58.138Z,998.50
2022-11-02T01:56:58.091Z,998.49
2022-11-02T01:57:58.086Z,998.47
2022-11-02T01:58:58.069Z,998.41
2022-11-02T01:59:58.061Z,998.51
2022-11-02T02:00:58.104Z,998.51
2022-11-02T02:01:58.142Z,998.44
2022-11-02T02:02:58.122Z,998.42
2022-11-02T02:03:58.042Z,998.44
2022-11-02T02:04:58.033Z,998.47
2022-11-02T02:05:58.059Z,998.49
2022-11-02T02:06:58.013Z,998.44
2022-11-02T02:07:58.224Z,998.47
2022-11-02T02:08:58.000Z,998.42
2022-11-02T02:10:00.651Z,998.49
2022-11-02T02:10:58.012Z,998.45
2022-11-02T02:11:57.971Z,998.44
2022-11-02T02:12:57.965Z,998.44
2022-11-02T02:13:57.960Z,998.42
2022-11-02T02:14:58.956Z,998.37
2022-11-02T02:15:57.997Z,998.41
2022-11-02T02:16:57.937Z,998.39
2022-11-02T02:17:57.929Z,998.37
2022-11-02T02:18:57.949Z,998.43
2022-11-02T02:19:57.921Z,998.38
2022-11-02T02:20:57.931Z,998.33
2022-11-02T02:21:57.907Z,998.34
2022-11-02T02:22:57.891Z,998.28
2022-11-02T02:23:57.888Z,998.24
2022-11-02T02:24:57.880Z,998.21
2022-11-02T02:25:57.900Z,998.17
2022-11-02T02:26:57.862Z,998.28
2022-11-02T02:27:57.859Z,998.26
2022-11-02T02:28:57.848Z,998.26
2022-11-02T02:29:57.833Z,998.22
2022-11-02T02:30:57.861Z,998.22
2022-11-02T02:31:57.819Z,998.27
2022-11-02T02:32:57.826Z,998.27
2022-11-02T02:33:57.826Z,998.21
2022-11-02T02:34:57.826Z,998.21
2022-11-02T02:35:57.814Z,998.29
2022-11-02T02:36:57.793Z,998.25
2022-11-02T02:37:57.775Z,998.22
2022-11-02T02:38:57.765Z,998.18
2022-11-02T02:39:57.763Z,998.20
2022-11-02T02:40:57.797Z,998.21
2022-11-02T02:41:57.742Z,998.19
2022-11-02T02:42:57.741Z,998.20
2022-11-02T02:43:58.729Z,998.19
2022-11-02T02:44:57.719Z,998.20
2022-11-02T02:45:57.738Z,998.14
2022-11-02T02:46:57.704Z,998.23
2022-11-02T02:47:57.716Z,998.24
2022-11-02T02:48:57.692Z,998.22
2022-11-02T02:49:57.689Z,998.20
2022-11-02T02:50:57.699Z,998.33
2022-11-02T02:51:57.674Z,998.19
2022-11-02T02:52:57.661Z,998.16
2022-11-02T02:53:57.651Z,998.16
2022-11-02T02:54:57.651Z,998.07
2022-11-02T02:55:57.674Z,998.08
2022-11-02T02:56:57.646Z,998.11
2022-11-02T02:57:57.620Z,998.14
2022-11-02T02:58:57.617Z,998.14
2022-11-02T02:59:57.614Z,998.11
2022-11-02T03:00:57.615Z,998.04
2022-11-02T03:01:58.711Z,998.12
2022-11-02T03:02:57.584Z,998.09
2022-11-02T03:03:57.589Z,998.07
2022-11-02T03:04:57.566Z,998.06
2022-11-02T03:05:57.591Z,998.06
2022-11-02T03:06:57.552Z,998.00
2022-11-02T03:07:57.552Z,998.10
2022-11-02T03:08:57.540Z,997.98
2022-11-02T03:09:57.532Z,998.09
2022-11-02T03:10:57.554Z,997.97
2022-11-02T03:11:57.522Z,998.02
2022-11-02T03:12:57.513Z,998.03
2022-11-02T03:13:57.500Z,997.95
2022-11-02T03:14:57.501Z,998.06
2022-11-02T03:15:57.514Z,998.05
2022-11-02T03:17:57.475Z,997.98
2022-11-02T03:18:57.460Z,998.02
2022-11-02T03:19:58.459Z,998.01
2022-11-02T03:20:57.482Z,998.04
2022-11-02T03:21:57.458Z,998.05
2022-11-02T03:22:57.439Z,997.98
2022-11-02T03:23:57.435Z,997.96
2022-11-02T03:24:57.441Z,998.04
2022-11-02T03:25:57.440Z,997.95
2022-11-02T03:26:57.406Z,998.03
2022-11-02T03:27:57.406Z,997.96
2022-11-02T03:28:57.394Z,997.95
2022-11-02T03:29:57.380Z,998.00
2022-11-02T03:30:57.412Z,998.03
2022-11-02T03:31:57.368Z,997.98
2022-11-02T03:32:57.360Z,997.99
2022-11-02T03:33:57.356Z,998.00
2022-11-02T03:34:57.344Z,998.00
2022-11-02T03:35:57.391Z,998.07
2022-11-02T03:36:57.419Z,998.09
2022-11-02T03:37:57.335Z,998.08
2022-11-02T03:38:57.320Z,998.01
2022-11-02T03:39:57.302Z,998.05
2022-11-02T03:40:57.367Z,998.05
2022-11-02T03:41:57.319Z,998.10
2022-11-02T03:42:57.281Z,998.11
2022-11-02T03:43:57.277Z,998.03
2022-11-02T03:44:57.283Z,998.22
2022-11-02T03:45:57.260Z,998.13
2022-11-02T03:46:57.272Z,998.20
2022-11-02T03:47:57.237Z,998.20
2022-11-02T03:48:57.237Z,998.16
2022-11-02T03:49:57.229Z,998.22
2022-11-02T03:50:57.214Z,998.23
2022-11-02T03:51:57.239Z,998.16
2022-11-02T03:52:57.210Z,998.27
2022-11-02T03:53:57.195Z,998.16
2022-11-02T03:54:57.185Z,998.19
2022-11-02T03:55:57.177Z,998.23
2022-11-02T03:56:57.227Z,998.26
2022-11-02T03:57:57.161Z,998.32
2022-11-02T03:58:57.160Z,998.24
2022-11-02T03:59:57.155Z,998.33
2022-11-02T04:00:57.142Z,998.28
2022-11-02T04:01:57.245Z,998.24
2022-11-02T04:02:57.146Z,998.28
2022-11-02T04:03:57.114Z,998.28
2022-11-02T04:04:57.123Z,998.26
2022-11-02T04:05:57.102Z,998.32
2022-11-02T04:06:57.120Z,998.31
2022-11-02T04:07:59.489Z,998.33
2022-11-02T04:08:57.079Z,998.32
2022-11-02T04:09:57.075Z,998.34
2022-11-02T04:10:57.073Z,998.35
2022-11-02T04:11:57.083Z,998.36
2022-11-02T04:12:57.059Z,998.39
2022-11-02T04:13:57.054Z,998.45
2022-11-02T04:14:57.033Z,998.43
2022-11-02T04:15:57.030Z,998.40
2022-11-02T04:16:57.050Z,998.49
2022-11-02T04:17:57.016Z,998.43
2022-11-02T04:18:57.005Z,998.47
2022-11-02T04:19:57.001Z,998.46
2022-11-02T04:20:57.037Z,998.46
2022-11-02T04:21:57.015Z,998.53
2022-11-02T04:22:56.985Z,998.59
2022-11-02T04:23:56.981Z,998.63
2022-11-02T04:24:56.964Z,998.62
2022-11-02T04:25:56.966Z,998.67
2022-11-02T04:26:56.988Z,998.54
2022-11-02T04:27:56.983Z,998.57
2022-11-02T04:28:56.930Z,998.64
2022-11-02T04:29:56.921Z,998.58
2022-11-02T04:30:56.915Z,998.56
2022-11-02T04:31:56.958Z,998.52
2022-11-02T04:32:56.898Z,998.55
2022-11-02T04:33:56.889Z,998.56
2022-11-02T04:34:56.890Z,998.62
2022-11-02T04:35:56.872Z,998.62
2022-11-02T04:36:56.901Z,998.62
2022-11-02T04:37:56.865Z,998.59
2022-11-02T04:38:56.861Z,998.54
2022-11-02T04:39:56.846Z,998.54
2022-11-02T04:40:56.838Z,998.58
2022-11-02T04:41:56.859Z,998.65
2022-11-02T04:42:56.819Z,998.57
2022-11-02T04:43:56.813Z,998.67
2022-11-02T04:44:56.810Z,998.57
2022-11-02T04:45:56.801Z,998.67
2022-11-02T04:46:56.829Z,998.79
2022-11-02T04:47:56.785Z,998.80
2022-11-02T04:48:56.798Z,998.75
2022-11-02T04:49:56.772Z,998.80
2022-11-02T04:50:56.853Z,998.80
2022-11-02T04:51:56.874Z,998.85
2022-11-02T04:52:56.753Z,998.71
2022-11-02T04:53:56.752Z,998.72
2022-11-02T04:54:56.739Z,998.73
2022-11-02T04:55:56.729Z,998.70
2022-11-02T04:56:56.740Z,998.66
2022-11-02T04:57:56.713Z,998.70
2022-11-02T04:58:56.702Z,998.69
2022-11-02T04:59:56.760Z,998.76
2022-11-02T05:00:56.690Z,998.73
2022-11-02T05:01:56.843Z,998.76
2022-11-02T05:02:56.712Z,998.74
2022-11-02T05:03:56.677Z,998.81
2022-11-02T05:04:56.662Z,998.77
2022-11-02T05:05:56.658Z,998.83
2022-11-02T05:07:01.199Z,998.75
2022-11-02T05:07:58.650Z,998.78
2022-11-02T05:08:56.629Z,998.74
2022-11-02T05:09:56.625Z,998.71
2022-11-02T05:10:56.616Z,998.62
2022-11-02T05:11:56.681Z,998.62
2022-11-02T05:12:56.601Z,998.64
2022-11-02T05:13:56.596Z,998.66
2022-11-02T05:14:56.583Z,998.63
2022-11-02T05:15:56.604Z,998.68
2022-11-02T05:16:56.608Z,998.67
2022-11-02T05:17:56.597Z,998.63
2022-11-02T05:18:56.569Z,998.65
2022-11-02T05:19:56.559Z,998.60
2022-11-02T05:20:56.544Z,998.58
2022-11-02T05:21:56.572Z,998.63
2022-11-02T05:22:56.533Z,998.52
2022-11-02T05:23:56.524Z,998.59
2022-11-02T05:24:56.511Z,998.55
2022-11-02T05:25:56.520Z,998.58
2022-11-02T05:26:56.527Z,998.66
2022-11-02T05:27:56.494Z,998.63
2022-11-02T05:28:56.480Z,998.65
2022-11-02T05:29:56.476Z,998.70
2022-11-02T05:30:56.468Z,998.66
2022-11-02T05:31:56.490Z,998.67
2022-11-02T05:32:56.455Z,998.68
2022-11-02T05:33:56.443Z,998.70
2022-11-02T05:34:56.444Z,998.69
2022-11-02T05:35:56.436Z,998.63
2022-11-02T05:36:56.451Z,998.65
2022-11-02T05:37:56.419Z,998.65
2022-11-02T05:38:56.410Z,998.61
2022-11-02T05:39:56.405Z,998.68
2022-11-02T05:40:56.404Z,998.64
2022-11-02T05:41:56.424Z,998.59
2022-11-02T05:42:58.048Z,998.59
2022-11-02T05:43:56.368Z,998.62
2022-11-02T05:44:56.366Z,998.59
2022-11-02T05:45:56.420Z,998.56
2022-11-02T05:46:56.374Z,998.54
2022-11-02T05:47:56.343Z,998.50
2022-11-02T05:48:56.341Z,998.60
2022-11-02T05:49:56.330Z,998.60
2022-11-02T05:50:56.320Z,998.63
2022-11-02T05:51:56.336Z,998.58
2022-11-02T05:52:56.318Z,998.56
2022-11-02T05:53:56.292Z,998.64
2022-11-02T05:54:56.301Z,998.63
2022-11-02T05:55:56.285Z,998.58
2022-11-02T05:56:56.299Z,998.61
2022-11-02T05:57:56.277Z,998.71
2022-11-02T05:58:56.269Z,998.71
2022-11-02T05:59:56.252Z,998.74
2022-11-02T06:00:56.257Z,998.70
2022-11-02T06:01:56.322Z,998.57
2022-11-02T06:02:56.229Z,998.72
2022-11-02T06:03:56.221Z,998.77
2022-11-02T06:04:56.302Z,998.76
2022-11-02T06:05:56.186Z,998.75
2022-11-02T06:06:57.224Z,998.78
2022-11-02T06:07:56.192Z,998.85
2022-11-02T06:08:56.183Z,998.82
2022-11-02T06:09:56.178Z,998.81
2022-11-02T06:10:56.178Z,998.81
2022-11-02T06:11:56.191Z,998.85
2022-11-02T06:12:56.150Z,998.91
2022-11-02T06:13:56.137Z,998.88
2022-11-02T06:14:56.139Z,998.89
2022-11-02T06:15:56.134Z,998.85
2022-11-02T06:16:56.165Z,998.90
2022-11-02T06:17:56.110Z,998.87
2022-11-02T06:18:56.100Z,998.78
2022-11-02T06:19:56.097Z,998.86
2022-11-02T06:20:56.085Z,998.85
2022-11-02T06:21:56.104Z,998.86
2022-11-02T06:22:56.069Z,998.96
2022-11-02T06:23:56.064Z,998.95
2022-11-02T06:24:56.062Z,998.99
2022-11-02T06:25:56.049Z,998.86
2022-11-02T06:26:56.229Z,998.90
2022-11-02T06:27:56.040Z,998.96
2022-11-02T06:28:56.059Z,999.01
2022-11-02T06:29:56.055Z,998.89
2022-11-02T06:30:56.017Z,998.96
2022-11-02T06:31:56.015Z,998.96
2022-11-02T06:32:56.016Z,998.97
2022-11-02T06:33:56.021Z,999.00
2022-11-02T06:34:55.989Z,999.03
2022-11-02T06:35:55.984Z,998.98
2022-11-02T06:36:55.971Z,998.98
2022-11-02T06:37:56.003Z,999.08
2022-11-02T06:38:55.961Z,999.09
2022-11-02T06:39:55.962Z,999.09
2022-11-02T06:40:55.939Z,999.11
2022-11-02T06:41:55.931Z,999.06
2022-11-02T06:43:15.337Z,999.17
2022-11-02T06:43:57.942Z,999.11
2022-11-02T06:44:55.908Z,999.21
2022-11-02T06:45:55.923Z,999.20
2022-11-02T06:46:55.898Z,999.23
2022-11-02T06:47:55.911Z,999.16
2022-11-02T06:48:55.871Z,999.26
2022-11-02T06:49:55.865Z,999.17
2022-11-02T06:50:56.861Z,999.21
2022-11-02T06:51:55.857Z,999.26
2022-11-02T06:52:55.872Z,999.33
2022-11-02T06:53:55.835Z,999.27
2022-11-02T06:54:55.832Z,999.26
2022-11-02T06:55:55.820Z,999.30
2022-11-02T06:56:55.816Z,999.29
2022-11-02T06:57:55.836Z,999.30
2022-11-02T06:58:55.820Z,999.27
2022-11-02T06:59:55.825Z,999.37
2022-11-02T07:00:55.861Z,999.49
2022-11-02T07:01:55.910Z,999.41
2022-11-02T07:02:55.797Z,999.44
2022-11-02T07:03:55.796Z,999.44
2022-11-02T07:04:55.755Z,999.50
2022-11-02T07:05:55.747Z,999.56
2022-11-02T07:06:55.734Z,999.59
2022-11-02T07:07:55.755Z,999.58
2022-11-02T07:08:55.722Z,999.56
2022-11-02T07:09:55.716Z,999.62
2022-11-02T07:10:55.705Z,999.61
2022-11-02T07:11:55.691Z,999.59
2022-11-02T07:12:55.708Z,999.59
2022-11-02T07:13:55.707Z,999.68
2022-11-02T07:14:55.675Z,999.59
2022-11-02T07:15:55.665Z,999.63
2022-11-02T07:16:55.663Z,999.60
2022-11-02T07:17:55.667Z,999.61
2022-11-02T07:18:56.636Z,999.67
2022-11-02T07:19:55.637Z,999.70
2022-11-02T07:20:55.619Z,999.66
2022-11-02T07:21:55.616Z,999.67
2022-11-02T07:22:55.649Z,999.70
2022-11-02T07:23:55.611Z,999.74
2022-11-02T07:24:55.595Z,999.75
2022-11-02T07:25:55.602Z,999.81
2022-11-02T07:26:55.575Z,999.82
2022-11-02T07:27:55.596Z,999.82
2022-11-02T07:28:59.267Z,999.72
2022-11-02T07:29:55.557Z,999.81
2022-11-02T07:30:55.559Z,999.70
2022-11-02T07:31:55.544Z,999.75
2022-11-02T07:32:55.562Z,999.69
2022-11-02T07:33:55.532Z,999.64
2022-11-02T07:34:55.512Z,999.67
2022-11-02T07:35:55.519Z,999.67
2022-11-02T07:36:57.011Z,999.70
2022-11-02T07:37:55.526Z,999.74
2022-11-02T07:38:55.486Z,999.76
2022-11-02T07:39:55.488Z,999.78
2022-11-02T07:40:55.470Z,999.79
2022-11-02T07:41:55.518Z,999.86
2022-11-02T07:42:55.489Z,999.79
2022-11-02T07:43:55.449Z,999.87
2022-11-02T07:44:55.441Z,999.86
2022-11-02T07:45:55.440Z,999.86
2022-11-02T07:46:55.436Z,999.90
2022-11-02T07:47:55.455Z,999.84
2022-11-02T07:48:55.412Z,999.91
2022-11-02T07:49:55.427Z,999.89
2022-11-02T07:50:55.403Z,999.87
2022-11-02T07:51:55.392Z,999.91
2022-11-02T07:52:55.423Z,999.90
2022-11-02T07:53:55.378Z,999.94
2022-11-02T07:54:55.373Z,999.93
2022-11-02T07:55:56.000Z,999.97
2022-11-02T07:56:55.354Z,1000.01
2022-11-02T07:57:55.368Z,1000.03
2022-11-02T07:58:55.336Z,999.95
2022-11-02T07:59:55.921Z,999.99
2022-11-02T08:00:59.612Z,1000.01
2022-11-02T08:01:56.367Z,1000.04
2022-11-02T08:02:55.429Z,999.99
2022-11-02T08:03:55.300Z,1000.03
2022-11-02T08:04:55.291Z,999.98
2022-11-02T08:05:55.285Z,999.98
2022-11-02T08:06:55.282Z,999.97
2022-11-02T08:07:55.265Z,999.94
2022-11-02T08:08:55.286Z,1000.03
2022-11-02T08:09:55.250Z,999.99
2022-11-02T08:10:55.247Z,1000.04
2022-11-02T08:11:55.264Z,1000.02
2022-11-02T08:12:55.240Z,1000.02
2022-11-02T08:13:55.249Z,1000.01
2022-11-02T08:14:55.221Z,1000.04
2022-11-02T08:15:55.221Z,1000.09
2022-11-02T08:16:55.209Z,1000.07
2022-11-02T08:17:55.258Z,999.99
2022-11-02T08:18:55.215Z,1000.06
2022-11-02T08:19:55.180Z,1000.08
2022-11-02T08:20:56.468Z,1000.04
2022-11-02T08:21:56.173Z,1000.05
2022-11-02T08:22:55.163Z,1000.12
2022-11-02T08:23:58.573Z,1000.11
2022-11-02T08:24:56.144Z,1000.16
2022-11-02T08:25:55.138Z,1000.07
2022-11-02T08:26:55.159Z,1000.12
2022-11-02T08:27:55.163Z,1000.11
2022-11-02T08:28:55.139Z,1000.19
2022-11-02T08:29:55.107Z,1000.18
2022-11-02T08:30:55.100Z,1000.14
2022-11-02T08:31:55.097Z,1000.12
2022-11-02T08:32:57.087Z,1000.14
2022-11-02T08:33:56.600Z,1000.20
2022-11-02T08:34:55.069Z,1000.16
2022-11-02T08:35:55.105Z,1000.23
2022-11-02T08:36:55.052Z,1000.22
2022-11-02T08:37:55.040Z,1000.17
2022-11-02T08:38:56.071Z,1000.22
2022-11-02T08:39:55.035Z,1000.20
2022-11-02T08:40:55.022Z,1000.26
2022-11-02T08:41:55.023Z,1000.25
2022-11-02T08:42:55.008Z,1000.21
2022-11-02T08:43:55.029Z,1000.23
2022-11-02T08:44:54.985Z,1000.24
2022-11-02T08:46:13.739Z,1000.19
2022-11-02T08:46:56.984Z,1000.17
2022-11-02T08:47:54.965Z,1000.22
2022-11-02T08:48:54.985Z,1000.23
2022-11-02T08:49:54.951Z,1000.22
2022-11-02T08:50:54.943Z,1000.25
2022-11-02T08:51:54.928Z,1000.15
2022-11-02T08:52:54.929Z,1000.22
2022-11-02T08:53:54.949Z,1000.23
2022-11-02T08:54:55.802Z,1000.17
2022-11-02T08:55:54.908Z,1000.18
2022-11-02T08:56:54.898Z,1000.16
2022-11-02T08:57:54.890Z,1000.19
2022-11-02T08:58:54.915Z,1000.20
2022-11-02T08:59:54.875Z,1000.11
2022-11-02T09:00:54.865Z,1000.26
2022-11-02T09:01:54.959Z,1000.20
2022-11-02T09:02:54.888Z,1000.12
2022-11-02T09:03:54.839Z,1000.27
2022-11-02T09:04:54.892Z,1000.24
2022-11-02T09:05:54.821Z,1000.24
2022-11-02T09:06:54.816Z,1000.27
2022-11-02T09:07:54.803Z,1000.22
2022-11-02T09:08:57.881Z,1000.33
2022-11-02T09:09:54.815Z,1000.32
2022-11-02T09:10:54.785Z,1000.25
2022-11-02T09:11:54.798Z,1000.33
2022-11-02T09:12:54.762Z,1000.31
2022-11-02T09:13:57.113Z,1000.33
2022-11-02T09:14:55.754Z,1000.26
2022-11-02T09:15:54.749Z,1000.37
2022-11-02T09:16:54.732Z,1000.22
2022-11-02T09:17:54.727Z,1000.32
2022-11-02T09:18:54.748Z,1000.42
2022-11-02T09:19:54.715Z,1000.26
2022-11-02T09:20:54.724Z,1000.33
2022-11-02T09:21:54.704Z,1000.35
2022-11-02T09:22:54.690Z,1000.45
2022-11-02T09:23:54.676Z,1000.45
2022-11-02T09:24:54.760Z,1000.29
2022-11-02T09:25:54.664Z,1000.34
2022-11-02T09:26:54.658Z,1000.39
2022-11-02T09:27:55.745Z,1000.38
2022-11-02T09:28:55.646Z,1000.37
2022-11-02T09:29:54.675Z,1000.40
2022-11-02T09:30:54.630Z,1000.43
2022-11-02T09:31:54.620Z,1000.41
2022-11-02T09:32:54.619Z,1000.32
2022-11-02T09:33:54.605Z,1000.42
2022-11-02T09:34:54.626Z,1000.39
2022-11-02T09:35:54.590Z,1000.43
2022-11-02T09:36:54.577Z,1000.46
2022-11-02T09:37:54.582Z,1000.50
2022-11-02T09:38:54.562Z,1000.48
2022-11-02T09:39:54.587Z,1000.57
2022-11-02T09:40:54.543Z,1000.57
2022-11-02T09:41:54.539Z,1000.50
2022-11-02T09:42:54.546Z,1000.55
2022-11-02T09:43:54.526Z,1000.49
2022-11-02T09:44:57.785Z,1000.68
2022-11-02T09:45:54.514Z,1000.61
2022-11-02T09:47:40.076Z,1000.54
2022-11-02T09:48:15.773Z,1000.62
2022-11-02T09:48:56.493Z,1000.61
2022-11-02T09:49:54.502Z,1000.59
2022-11-02T09:50:56.505Z,1000.71
2022-11-02T09:51:54.467Z,1000.71
2022-11-02T09:52:54.463Z,1000.65
2022-11-02T09:53:54.447Z,1000.64
2022-11-02T09:54:54.472Z,1000.70
2022-11-02T09:55:54.433Z,1000.56
2022-11-02T09:56:54.442Z,1000.66
2022-11-02T09:57:54.418Z,1000.65
2022-11-02T09:58:54.415Z,1000.67
2022-11-02T09:59:54.433Z,1000.71
2022-11-02T10:00:57.973Z,1000.65
2022-11-02T10:01:55.406Z,1000.71
2022-11-02T10:02:54.430Z,1000.72
2022-11-02T10:03:54.374Z,1000.76
2022-11-02T10:04:54.403Z,1000.76
2022-11-02T10:05:54.364Z,1000.83
2022-11-02T10:06:54.363Z,1000.80
2022-11-02T10:07:54.360Z,1000.77
2022-11-02T10:08:54.333Z,1000.77
2022-11-02T10:09:54.352Z,1000.80
2022-11-02T10:10:54.320Z,1000.90
2022-11-02T10:11:54.313Z,1000.83
2022-11-02T10:12:54.308Z,1000.82
2022-11-02T10:13:56.749Z,1000.84
2022-11-02T10:14:56.293Z,1000.79
2022-11-02T10:15:54.275Z,1000.83
2022-11-02T10:16:54.279Z,1000.85
2022-11-02T10:17:54.265Z,1000.89
2022-11-02T10:18:54.286Z,1000.87
2022-11-02T10:19:54.264Z,1000.85
2022-11-02T10:20:55.238Z,1000.93
2022-11-02T10:21:54.240Z,1000.84
2022-11-02T10:22:54.219Z,1000.87
2022-11-02T10:23:54.215Z,1000.85
2022-11-02T10:24:54.238Z,1000.88
2022-11-02T10:25:54.198Z,1000.89
2022-11-02T10:26:54.192Z,1000.94
2022-11-02T10:27:54.223Z,1000.89
2022-11-02T10:28:54.246Z,1000.95
2022-11-02T10:30:13.082Z,1000.93
2022-11-02T10:30:54.393Z,1000.90
2022-11-02T10:31:54.152Z,1000.97
2022-11-02T10:32:54.154Z,1000.96
2022-11-02T10:33:57.074Z,1000.96
2022-11-02T10:34:59.347Z,1000.93
2022-11-02T10:36:16.866Z,1000.94
2022-11-02T10:36:56.111Z,1001.00
2022-11-02T10:37:54.107Z,1001.01
2022-11-02T10:38:54.099Z,1001.08
2022-11-02T10:39:54.092Z,1001.01
2022-11-02T10:40:54.115Z,1001.02
2022-11-02T10:41:54.106Z,1001.10
2022-11-02T10:42:54.078Z,1000.91
2022-11-02T10:44:00.777Z,1001.03
2022-11-02T10:45:01.445Z,1001.10
2022-11-02T10:45:54.077Z,1000.99
2022-11-02T10:46:54.044Z,1001.17
2022-11-02T10:47:54.038Z,1001.12
2022-11-02T10:48:54.029Z,1001.07
2022-11-02T10:49:54.015Z,1001.05
2022-11-02T10:50:54.035Z,1001.07
2022-11-02T10:51:54.007Z,1001.13
2022-11-02T10:52:53.993Z,1001.13
2022-11-02T10:53:54.102Z,1001.16
2022-11-02T10:54:53.982Z,1001.17
2022-11-02T10:55:53.999Z,1001.12
2022-11-02T10:56:53.972Z,1001.09
2022-11-02T10:57:53.976Z,1001.05
2022-11-02T10:58:53.982Z,1001.07
2022-11-02T10:59:56.881Z,1001.17
2022-11-02T11:00:55.003Z,1001.06
2022-11-02T11:01:53.970Z,1001.06
2022-11-02T11:02:53.919Z,1001.07
2022-11-02T11:03:53.955Z,1000.90
2022-11-02T11:04:53.904Z,1001.07
2022-11-02T11:05:53.929Z,1001.06
2022-11-02T11:06:53.890Z,1001.01
2022-11-02T11:07:53.923Z,1001.01
2022-11-02T11:08:53.871Z,1001.07
2022-11-02T11:09:53.895Z,1001.05
2022-11-02T11:10:56.652Z,1001.13
2022-11-02T11:11:53.857Z,1001.02
2022-11-02T11:12:54.054Z,1000.97
2022-11-02T11:15:55.820Z,1001.05
2022-11-02T11:16:54.293Z,1001.06
2022-11-02T11:19:55.792Z,1001.06
2022-11-02T11:20:53.804Z,1001.09
2022-11-02T11:21:53.784Z,1001.03
2022-11-02T11:22:53.770Z,1001.07
2022-11-02T11:23:53.758Z,1001.14
2022-11-02T11:24:53.771Z,1001.21
2022-11-02T11:25:53.777Z,1001.35
2022-11-02T11:26:58.008Z,1001.23
2022-11-02T11:27:55.760Z,1001.26
2022-11-02T11:28:53.722Z,1001.26
2022-11-02T11:29:53.713Z,1001.22
2022-11-02T11:31:00.056Z,1001.34
2022-11-02T11:31:55.699Z,1001.21
2022-11-02T11:32:53.685Z,1001.14
2022-11-02T11:33:53.680Z,1001.03
2022-11-02T11:34:53.675Z,1001.10
2022-11-02T11:35:53.700Z,1000.92
2022-11-02T11:36:53.663Z,1001.00
2022-11-02T11:37:53.648Z,1001.03
2022-11-02T11:38:53.644Z,1001.05
2022-11-02T11:39:54.913Z,1000.96
2022-11-02T11:40:54.685Z,1000.99
2022-11-02T11:41:53.623Z,1001.00
2022-11-02T11:42:56.374Z,1001.07
2022-11-02T11:43:54.605Z,1001.01
2022-11-02T11:44:53.600Z,1000.88
2022-11-02T11:45:53.633Z,1001.05
2022-11-02T11:46:53.582Z,1001.08
2022-11-02T11:47:53.576Z,1001.04
2022-11-02T11:48:53.568Z,1000.98
2022-11-02T11:50:16.556Z,1000.97
2022-11-02T11:50:55.581Z,1001.02
2022-11-02T11:51:53.544Z,1001.05
2022-11-02T11:52:53.539Z,1001.02
2022-11-02T11:53:53.556Z,1001.05
2022-11-02T11:54:53.527Z,1001.02
2022-11-02T11:55:53.514Z,1001.06
2022-11-02T11:56:53.534Z,1000.96
2022-11-02T11:57:53.494Z,1001.01
2022-11-02T11:58:53.489Z,1000.95
2022-11-02T11:59:53.481Z,1001.03
2022-11-02T12:00:53.474Z,1001.07
2022-11-02T12:01:53.632Z,1001.01
2022-11-02T12:02:53.548Z,1000.96
2022-11-02T12:03:53.454Z,1000.88
2022-11-02T12:04:53.441Z,1001.00
2022-11-02T12:05:53.466Z,1001.02
2022-11-02T12:06:53.425Z,1001.01
2022-11-02T12:08:04.882Z,1001.05
2022-11-02T12:08:57.975Z,1001.02
2022-11-02T12:09:54.415Z,1001.09
2022-11-02T12:10:53.427Z,1001.10
2022-11-02T12:11:53.398Z,1001.10
2022-11-02T12:12:53.386Z,1001.08
2022-11-02T12:13:53.385Z,1000.99
2022-11-02T12:14:53.372Z,1001.04
2022-11-02T12:15:53.390Z,1001.07
2022-11-02T12:16:53.359Z,1000.99
2022-11-02T12:17:53.451Z,1001.00
2022-11-02T12:18:53.426Z,1001.04
2022-11-02T12:19:53.329Z,1001.01
2022-11-02T12:20:53.344Z,1000.94
2022-11-02T12:21:53.322Z,1000.99
2022-11-02T12:22:53.360Z,1001.01
2022-11-02T12:23:53.293Z,1001.05
2022-11-02T12:24:53.296Z,1000.95
2022-11-02T12:25:53.359Z,1001.00